Time;durP1;ratioP1;P1;durP2;ratioP2;P2;SDS_P1;SDS_P2;PMS_P1;PMS_P2;Temp;Humidity;BMP_temperature;BMP_pressure;BME280_temperature;BME280_humidity;BME280_pressure;Samples;Min_cycle;Max_cycle;Signal;HPM_P1;HPM_P2
2024/01/29 00:02:11;;;;;;;;;;;;;;;4.42;56.23;102681.37;5372961;32;34919;-70
2024/01/29 00:05:14;;;;;;;;;;;;;;;4.21;57.40;102686.09;5368719;32;34754;-65
2024/01/29 00:08:16;;;;;;;;;;;;;;;4.60;56.16;102675.69;5347330;32;34420;-66
2024/01/29 00:11:19;;;;;;;;;;;;;;;3.79;58.25;102682.44;5369372;32;36032;-69
2024/01/29 00:14:21;;;;;;;;;;;;;;;3.60;59.34;102679.34;5359546;32;34388;-71
2024/01/29 00:17:23;;;;;;;;;;;;;;;3.25;60.81;102674.97;5370946;32;35371;-66
2024/01/29 00:20:26;;;;;;;;;;;;;;;3.93;58.92;102655.91;5369822;32;34835;-70
2024/01/29 00:23:28;;;;;;;;;;;;;;;4.07;58.22;102663.22;5365932;32;35062;-70
2024/01/29 00:26:30;;;;;;;;;;;;;;;4.18;57.76;102665.19;5361935;32;34381;-65
2024/01/29 00:29:32;;;;;;;;;;;;;;;3.86;58.77;102669.59;5357959;32;35036;-70
2024/01/29 00:32:34;;;;;;;;;;;;;;;3.71;59.27;102668.38;5369698;32;34805;-65
2024/01/29 00:35:37;;;;;;;;;;;;;;;3.03;61.95;102670.03;5358217;32;34808;-66
2024/01/29 00:38:39;;;;;;;;;;;;;;;3.57;59.70;102677.56;5351269;32;35004;-70
2024/01/29 00:41:42;;;;;;;;;;;;;;;3.65;59.86;102669.94;5364580;32;34905;-65
2024/01/29 00:44:44;;;;;;;;;;;;;;;3.38;60.24;102672.72;5374065;32;34144;-66
2024/01/29 00:47:46;;;;;;;;;;;;;;;3.32;61.14;102678.63;5368754;32;35028;-66
2024/01/29 00:50:49;;;;;;;;;;;;;;;3.95;58.94;102677.66;5359988;32;34205;-69
2024/01/29 00:53:51;;;;;;;;;;;;;;;3.45;59.74;102696.31;5355410;32;35763;-70
2024/01/29 00:56:53;;;;;;;;;;;;;;;3.92;58.76;102703.56;5370484;32;34799;-66
2024/01/29 00:59:55;;;;;;;;;;;;;;;3.92;59.01;102717.47;5357511;32;35471;-68
2024/01/29 01:02:58;;;;;;;;;;;;;;;4.02;58.65;102711.66;5363206;32;34490;-66
2024/01/29 01:06:00;;;;;;;;;;;;;;;4.08;57.36;102710.94;5358963;32;34719;-71
2024/01/29 01:09:03;;;;;;;;;;;;;;;3.43;59.54;102716.19;5367581;32;34350;-72
2024/01/29 01:12:05;;;;;;;;;;;;;;;2.75;62.51;102719.41;5373607;32;35039;-65
2024/01/29 01:15:07;;;;;;;;;;;;;;;3.45;60.22;102716.22;5354912;32;35250;-66
2024/01/29 01:18:09;;;;;;;;;;;;;;;3.32;60.20;102717.59;5370598;32;35135;-70
2024/01/29 01:21:12;;;;;;;;;;;;;;;3.31;60.51;102725.37;5359995;32;35520;-69
2024/01/29 01:24:14;;;;;;;;;;;;;;;2.81;62.33;102724.78;5353911;32;34890;-65
2024/01/29 01:27:16;;;;;;;;;;;;;;;3.55;60.19;102725.19;5369899;32;34942;-65
2024/01/29 01:30:20;;;;;;;;;;;;;;;3.33;60.65;102711.56;5367946;32;35546;-64
2024/01/29 01:33:22;;;;;;;;;;;;;;;3.10;61.66;102703.16;5372593;32;37051;-67
2024/01/29 01:36:24;;;;;;;;;;;;;;;3.23;61.13;102705.25;5368829;32;35495;-65
2024/01/29 01:39:27;;;;;;;;;;;;;;;2.56;63.84;102703.25;5362790;32;34666;-72
2024/01/29 01:42:29;;;;;;;;;;;;;;;3.25;61.42;102711.34;5371751;32;35014;-70
2024/01/29 01:45:31;;;;;;;;;;;;;;;3.02;61.69;102706.34;5369195;32;34833;-65
2024/01/29 01:48:34;;;;;;;;;;;;;;;3.07;62.30;102705.63;5372936;32;34832;-66
2024/01/29 01:51:36;;;;;;;;;;;;;;;3.31;61.25;102708.06;5368487;32;34827;-66
2024/01/29 01:54:38;;;;;;;;;;;;;;;3.32;61.68;102706.34;5359175;32;35253;-70
2024/01/29 01:57:40;;;;;;;;;;;;;;;2.83;63.45;102708.37;5353947;32;34404;-66
2024/01/29 02:00:43;;;;;;;;;;;;;;;2.80;63.69;102697.94;5368940;32;34327;-65
2024/01/29 02:03:45;;;;;;;;;;;;;;;3.38;61.59;102701.31;5356469;32;36291;-66
2024/01/29 02:06:48;;;;;;;;;;;;;;;2.88;63.53;102701.63;5367649;32;35076;-65
2024/01/29 02:09:50;;;;;;;;;;;;;;;2.72;64.01;102708.09;5358692;32;34466;-70
2024/01/29 02:12:53;;;;;;;;;;;;;;;2.97;63.27;102701.03;5367995;32;34984;-70
2024/01/29 02:15:55;;;;;;;;;;;;;;;2.98;62.52;102698.47;5372652;32;35674;-66
2024/01/29 02:18:58;;;;;;;;;;;;;;;2.52;64.63;102701.41;5368754;32;35322;-65
2024/01/29 02:22:00;;;;;;;;;;;;;;;2.60;64.51;102702.53;5361274;32;35669;-67
2024/01/29 02:25:03;;;;;;;;;;;;;;;2.93;63.97;102702.66;5365205;32;34711;-66
2024/01/29 02:28:05;;;;;;;;;;;;;;;3.18;63.04;102704.22;5364829;32;34469;-66
2024/01/29 02:31:07;;;;;;;;;;;;;;;3.11;62.68;102702.31;5372304;32;35357;-67
2024/01/29 02:34:10;;;;;;;;;;;;;;;2.35;64.83;102689.62;5358804;32;34913;-73
2024/01/29 02:37:12;;;;;;;;;;;;;;;2.21;66.19;102696.09;5370789;32;35674;-66
2024/01/29 02:40:14;;;;;;;;;;;;;;;2.83;64.37;102686.75;5358221;32;34636;-65
2024/01/29 02:43:17;;;;;;;;;;;;;;;2.85;64.07;102685.97;5356941;32;34933;-65
2024/01/29 02:46:19;;;;;;;;;;;;;;;2.18;65.61;102674.37;5372315;32;34899;-72
2024/01/29 02:49:21;;;;;;;;;;;;;;;2.62;65.32;102674.88;5359542;32;34918;-68
2024/01/29 02:52:23;;;;;;;;;;;;;;;2.33;66.30;102681.81;5372231;32;35766;-70
2024/01/29 02:55:25;;;;;;;;;;;;;;;2.35;65.86;102671.47;5367727;32;35591;-70
2024/01/29 02:58:29;;;;;;;;;;;;;;;2.13;67.60;102685.47;5362276;32;35502;-70
2024/01/29 03:01:31;;;;;;;;;;;;;;;2.36;66.02;102662.84;5367368;32;34833;-65
2024/01/29 03:04:33;;;;;;;;;;;;;;;2.53;65.60;102677.22;5366080;32;34777;-70
2024/01/29 03:07:36;;;;;;;;;;;;;;;2.76;64.54;102682.19;5371803;32;34248;-65
2024/01/29 03:10:38;;;;;;;;;;;;;;;2.14;67.16;102688.13;5367501;32;34519;-66
2024/01/29 03:13:40;;;;;;;;;;;;;;;2.26;67.53;102690.22;5371403;32;35040;-65
2024/01/29 03:16:43;;;;;;;;;;;;;;;2.38;67.30;102692.31;5367613;32;35474;-71
2024/01/29 03:19:45;;;;;;;;;;;;;;;2.40;66.77;102696.72;5358120;32;34763;-70
2024/01/29 03:22:47;;;;;;;;;;;;;;;2.25;67.91;102696.22;5378563;32;35507;-64
2024/01/29 03:25:49;;;;;;;;;;;;;;;2.58;66.40;102696.41;5363197;32;34851;-65
2024/01/29 03:28:52;;;;;;;;;;;;;;;2.33;67.12;102699.97;5370058;32;34376;-71
2024/01/29 03:31:54;;;;;;;;;;;;;;;2.97;65.00;102699.31;5366209;32;35547;-70
2024/01/29 03:34:56;;;;;;;;;;;;;;;2.50;65.86;102695.28;5374374;32;34909;-70
2024/01/29 03:37:59;;;;;;;;;;;;;;;2.16;67.64;102706.31;5367787;32;35507;-66
2024/01/29 03:41:01;;;;;;;;;;;;;;;2.60;66.19;102699.94;5370550;32;34798;-65
2024/01/29 03:44:03;;;;;;;;;;;;;;;2.33;66.42;102699.97;5370936;32;35991;-73
2024/01/29 03:47:05;;;;;;;;;;;;;;;2.13;67.17;102691.56;5356074;32;34312;-70
2024/01/29 03:50:07;;;;;;;;;;;;;;;2.45;66.32;102689.09;5375005;32;34899;-65
2024/01/29 03:53:10;;;;;;;;;;;;;;;3.24;62.91;102682.72;5369033;32;34916;-69
2024/01/29 03:56:12;;;;;;;;;;;;;;;2.70;64.45;102680.31;5373309;32;35519;-66
2024/01/29 03:59:14;;;;;;;;;;;;;;;1.90;67.25;102687.31;5355718;32;35512;-71
2024/01/29 04:02:16;;;;;;;;;;;;;;;1.71;69.75;102697.91;5357236;32;35295;-71
2024/01/29 04:05:18;;;;;;;;;;;;;;;1.85;68.99;102694.06;5370097;32;35755;-70
2024/01/29 04:08:21;;;;;;;;;;;;;;;1.76;68.65;102693.75;5356404;32;34212;-72
2024/01/29 04:11:23;;;;;;;;;;;;;;;1.99;68.29;102692.78;5359950;32;34625;-69
2024/01/29 04:14:28;;;;;;;;;;;;;;;1.72;69.45;102704.84;5369547;32;35079;-66
2024/01/29 04:17:30;;;;;;;;;;;;;;;2.08;67.58;102687.91;5373563;32;34733;-68
2024/01/29 04:20:33;;;;;;;;;;;;;;;2.13;68.12;102695.88;5369301;32;34914;-70
2024/01/29 04:23:35;;;;;;;;;;;;;;;2.59;66.26;102692.09;5363776;32;35372;-65
2024/01/29 04:26:40;;;;;;;;;;;;;;;2.78;65.13;102688.34;5369653;32;35032;-70
2024/01/29 04:29:42;;;;;;;;;;;;;;;2.80;63.51;102689.25;5353200;32;34570;-70
2024/01/29 04:32:44;;;;;;;;;;;;;;;2.71;64.64;102689.88;5359747;32;34834;-67
2024/01/29 04:35:47;;;;;;;;;;;;;;;1.21;69.66;102691.81;5354981;32;34469;-69
2024/01/29 04:38:49;;;;;;;;;;;;;;;1.57;68.90;102695.72;5355333;32;35273;-66
2024/01/29 04:41:52;;;;;;;;;;;;;;;1.56;69.33;102701.72;5369120;32;34940;-70
2024/01/29 04:44:54;;;;;;;;;;;;;;;1.82;68.82;102705.22;5370615;32;34318;-70
2024/01/29 04:47:56;;;;;;;;;;;;;;;2.31;67.54;102695.53;5371699;32;35140;-69
2024/01/29 04:50:58;;;;;;;;;;;;;;;2.09;67.32;102707.84;5355084;32;34802;-65
2024/01/29 04:54:01;;;;;;;;;;;;;;;2.16;66.94;102717.56;5374057;32;35518;-65
2024/01/29 04:57:03;;;;;;;;;;;;;;;2.82;65.13;102713.56;5368154;32;34252;-66
2024/01/29 05:00:06;;;;;;;;;;;;;;;2.31;66.11;102712.00;5373245;32;34398;-72
2024/01/29 05:03:08;;;;;;;;;;;;;;;2.64;65.15;102707.00;5352907;32;35688;-70
2024/01/29 05:06:10;;;;;;;;;;;;;;;3.08;63.53;102712.59;5368750;32;34936;-71
2024/01/29 05:09:13;;;;;;;;;;;;;;;3.12;62.54;102714.44;5373575;32;34699;-70
2024/01/29 05:12:15;;;;;;;;;;;;;;;2.75;63.63;102709.00;5366446;32;34288;-70
2024/01/29 05:15:17;;;;;;;;;;;;;;;2.63;64.48;102719.91;5374378;32;35100;-68
2024/01/29 05:18:20;;;;;;;;;;;;;;;1.76;66.85;102728.34;5369169;32;35284;-67
2024/01/29 05:21:23;;;;;;;;;;;;;;;1.47;69.29;102736.81;5377030;32;35081;-66
2024/01/29 05:24:25;;;;;;;;;;;;;;;1.82;68.67;102730.28;5355951;32;34602;-73
2024/01/29 05:27:27;;;;;;;;;;;;;;;2.25;67.34;102739.47;5366661;32;34581;-65
2024/01/29 05:30:29;;;;;;;;;;;;;;;3.01;64.06;102725.37;5359290;32;34963;-72
2024/01/29 05:33:32;;;;;;;;;;;;;;;3.02;62.97;102707.22;5354564;32;35062;-67
2024/01/29 05:36:34;;;;;;;;;;;;;;;2.40;65.02;102720.09;5359693;32;34361;-68
2024/01/29 05:39:36;;;;;;;;;;;;;;;2.54;64.93;102720.50;5362518;32;34473;-65
2024/01/29 05:42:39;;;;;;;;;;;;;;;2.91;63.85;102712.13;5373538;32;34604;-69
2024/01/29 05:45:41;;;;;;;;;;;;;;;3.14;63.07;102710.16;5355114;32;34356;-71
2024/01/29 05:48:43;;;;;;;;;;;;;;;3.03;63.55;102703.81;5367714;32;35546;-66
2024/01/29 05:51:47;;;;;;;;;;;;;;;2.97;63.62;102690.63;5373150;32;34216;-67
2024/01/29 05:54:49;;;;;;;;;;;;;;;2.55;64.48;102704.09;5368321;32;34682;-72
2024/01/29 05:57:51;;;;;;;;;;;;;;;2.18;66.07;102721.09;5371536;32;34993;-67
2024/01/29 06:00:54;;;;;;;;;;;;;;;2.65;65.04;102707.87;5354306;32;35174;-71
2024/01/29 06:03:56;;;;;;;;;;;;;;;3.12;63.07;102705.78;5357053;32;34166;-71
2024/01/29 06:06:58;;;;;;;;;;;;;;;1.94;66.06;102714.25;5359411;32;35066;-71
2024/01/29 06:10:00;;;;;;;;;;;;;;;1.95;66.87;102706.50;5350205;32;35235;-70
2024/01/29 06:13:03;;;;;;;;;;;;;;;2.28;66.11;102716.22;5372411;32;35402;-66
2024/01/29 06:16:05;;;;;;;;;;;;;;;1.93;67.88;102720.25;5368521;32;34194;-71
2024/01/29 06:19:09;;;;;;;;;;;;;;;1.87;68.69;102719.22;5373568;32;35376;-70
2024/01/29 06:22:12;;;;;;;;;;;;;;;2.01;68.38;102718.81;5362519;32;35353;-66
2024/01/29 06:25:16;;;;;;;;;;;;;;;2.49;66.58;102719.47;5350592;32;34281;-71
2024/01/29 06:28:18;;;;;;;;;;;;;;;1.93;67.88;102733.19;5365172;32;35055;-70
2024/01/29 06:31:20;;;;;;;;;;;;;;;2.89;65.31;102724.16;5353577;32;34875;-65
2024/01/29 06:34:25;;;;;;;;;;;;;;;3.03;63.43;102734.06;5358757;32;35029;-71
2024/01/29 06:37:27;;;;;;;;;;;;;;;2.65;64.74;102732.13;5370318;32;35788;-68
2024/01/29 06:40:29;;;;;;;;;;;;;;;2.18;66.51;102730.59;5364392;32;35388;-68
2024/01/29 06:43:31;;;;;;;;;;;;;;;2.79;64.17;102721.25;5365230;32;35651;-69
2024/01/29 06:46:33;;;;;;;;;;;;;;;2.88;64.50;102721.53;5365148;32;34914;-69
2024/01/29 06:49:35;;;;;;;;;;;;;;;3.46;61.59;102733.59;5365807;32;35100;-69
2024/01/29 06:52:37;;;;;;;;;;;;;;;2.89;64.80;102734.56;5367785;32;35552;-69
2024/01/29 06:55:45;;;;;;;;;;;;;;;3.61;63.26;102728.81;5365499;32;35090;-65
2024/01/29 06:58:48;;;;;;;;;;;;;;;3.89;61.23;102734.72;5347115;32;34253;-83
2024/01/29 07:01:52;;;;;;;;;;;;;;;3.70;60.38;102736.84;5361758;32;34255;-70
2024/01/29 07:04:54;;;;;;;;;;;;;;;3.35;61.08;102735.00;5362982;32;34774;-69
2024/01/29 07:07:57;;;;;;;;;;;;;;;3.50;61.20;102735.44;5341692;32;34880;-84
2024/01/29 07:10:59;;;;;;;;;;;;;;;2.73;63.15;102753.13;5367518;32;34289;-75
2024/01/29 07:14:01;;;;;;;;;;;;;;;2.07;67.01;102757.91;5366044;32;34175;-85
2024/01/29 07:17:03;;;;;;;;;;;;;;;2.13;67.77;102759.00;5355723;32;34295;-85
2024/01/29 07:20:08;;;;;;;;;;;;;;;1.63;68.40;102755.56;5370636;32;34278;-76
2024/01/29 07:23:10;;;;;;;;;;;;;;;1.67;68.65;102769.50;5351969;32;37132;-67
2024/01/29 07:26:15;;;;;;;;;;;;;;;1.76;69.13;102771.53;5350829;32;34302;-70
2024/01/29 07:29:17;;;;;;;;;;;;;;;1.72;69.21;102774.84;5371635;32;34338;-76
2024/01/29 07:32:20;;;;;;;;;;;;;;;1.74;69.25;102779.28;5373922;32;34339;-73
2024/01/29 07:35:22;;;;;;;;;;;;;;;2.01;68.34;102779.34;5365105;32;34100;-69
2024/01/29 07:38:24;;;;;;;;;;;;;;;2.89;66.09;102772.63;5354313;32;35090;-70
2024/01/29 07:41:26;;;;;;;;;;;;;;;3.06;64.47;102765.34;5367154;32;33941;-75
2024/01/29 07:44:29;;;;;;;;;;;;;;;3.79;61.67;102770.00;5355002;32;34484;-70
2024/01/29 07:47:31;;;;;;;;;;;;;;;3.11;62.82;102767.25;5356662;32;34399;-64
2024/01/29 07:50:33;;;;;;;;;;;;;;;4.17;59.69;102758.00;5363880;32;34920;-62
2024/01/29 07:53:37;;;;;;;;;;;;;;;3.86;60.38;102769.34;5369450;32;35959;-68
2024/01/29 07:56:44;;;;;;;;;;;;;;;4.07;59.75;102769.03;5368068;32;33192;-81
2024/01/29 07:59:48;;;;;;;;;;;;;;;3.94;60.31;102769.56;5365095;32;34102;-66
2024/01/29 08:02:50;;;;;;;;;;;;;;;3.11;62.84;102762.06;5362424;32;35802;-81
2024/01/29 08:05:52;;;;;;;;;;;;;;;2.67;65.34;102758.13;5353944;32;33353;-75
2024/01/29 08:08:54;;;;;;;;;;;;;;;3.40;64.07;102759.41;5366661;32;34841;-83
2024/01/29 08:11:57;;;;;;;;;;;;;;;3.95;61.27;102755.72;5348009;32;34389;-84
2024/01/29 08:14:59;;;;;;;;;;;;;;;3.77;59.73;102756.09;5358135;32;34474;-75
2024/01/29 08:18:02;;;;;;;;;;;;;;;3.07;63.32;102746.34;5352399;32;34373;-70
2024/01/29 08:21:04;;;;;;;;;;;;;;;3.11;63.59;102740.41;5368688;32;35184;-72
2024/01/29 08:24:09;;;;;;;;;;;;;;;3.69;62.54;102747.22;5365349;32;35565;-65
2024/01/29 08:27:11;;;;;;;;;;;;;;;3.85;61.81;102749.38;5339294;32;34433;-66
2024/01/29 08:30:13;;;;;;;;;;;;;;;4.13;61.27;102743.16;5354292;32;35578;-71
2024/01/29 08:33:19;;;;;;;;;;;;;;;4.92;58.76;102730.22;5348715;32;33838;-78
2024/01/29 08:36:22;;;;;;;;;;;;;;;4.99;57.76;102739.94;5345915;32;35824;-76
2024/01/29 08:39:24;;;;;;;;;;;;;;;4.53;58.47;102742.41;5356620;32;34412;-66
2024/01/29 08:42:29;;;;;;;;;;;;;;;4.65;59.62;102749.63;5350891;32;36865;-72
2024/01/29 08:45:34;;;;;;;;;;;;;;;3.89;61.46;102756.44;5366916;32;36048;-69
2024/01/29 08:48:36;;;;;;;;;;;;;;;4.43;60.70;102758.63;5367239;32;34942;-64
2024/01/29 08:51:38;;;;;;;;;;;;;;;4.36;60.17;102754.12;5363516;32;35613;-66
2024/01/29 08:54:41;;;;;;;;;;;;;;;4.13;60.52;102758.78;5358883;32;34670;-69
2024/01/29 08:57:43;;;;;;;;;;;;;;;4.27;60.04;102757.41;5361781;32;35648;-67
2024/01/29 09:00:45;;;;;;;;;;;;;;;3.87;61.48;102759.84;5360141;32;36853;-78
2024/01/29 09:03:49;;;;;;;;;;;;;;;3.98;61.31;102758.37;5346328;32;33972;-72
2024/01/29 09:06:55;;;;;;;;;;;;;;;5.08;57.94;102742.72;5362486;32;33768;-73
2024/01/29 09:09:58;;;;;;;;;;;;;;;5.39;56.86;102758.16;5337517;32;34858;-70
2024/01/29 09:13:03;;;;;;;;;;;;;;;5.32;57.63;102758.00;5351108;32;35520;-79
2024/01/29 09:16:08;;;;;;;;;;;;;;;5.47;56.16;102757.41;5358498;32;35077;-76
2024/01/29 09:19:11;;;;;;;;;;;;;;;6.16;54.63;102762.22;5358740;32;33484;-66
2024/01/29 09:22:13;;;;;;;;;;;;;;;6.37;53.55;102752.09;5360495;32;34342;-71
2024/01/29 09:25:16;;;;;;;;;;;;;;;6.32;53.69;102748.56;5352014;32;32403;-73
2024/01/29 09:28:20;;;;;;;;;;;;;;;5.88;54.44;102758.22;5363646;32;35668;-65
2024/01/29 09:31:22;;;;;;;;;;;;;;;6.73;52.62;102750.91;5348693;32;34444;-75
2024/01/29 09:34:27;;;;;;;;;;;;;;;6.54;52.89;102754.12;5375722;32;34446;-82
2024/01/29 09:37:29;;;;;;;;;;;;;;;6.38;53.35;102759.13;5345379;32;35447;-78
2024/01/29 09:40:34;;;;;;;;;;;;;;;6.97;51.46;102753.88;5371105;32;34224;-76
2024/01/29 09:43:36;;;;;;;;;;;;;;;6.02;53.32;102758.50;5365747;32;35395;-74
2024/01/29 09:46:39;;;;;;;;;;;;;;;6.12;53.37;102756.06;5363018;32;34476;-68
2024/01/29 09:49:43;;;;;;;;;;;;;;;6.85;51.06;102748.47;5357513;32;35584;-75
2024/01/29 09:52:49;;;;;;;;;;;;;;;7.09;50.61;102752.28;5350410;32;33612;-66
2024/01/29 09:55:51;;;;;;;;;;;;;;;6.79;50.92;102740.56;5349481;32;34253;-68
2024/01/29 09:58:53;;;;;;;;;;;;;;;7.52;48.20;102740.56;5367907;32;35852;-66
2024/01/29 10:01:56;;;;;;;;;;;;;;;6.49;50.26;102740.97;5362622;32;35778;-77
2024/01/29 10:05:08;;;;;;;;;;;;;;;6.06;51.96;102740.31;5351704;32;35641;-80
2024/01/29 10:08:10;;;;;;;;;;;;;;;7.50;48.00;102748.41;5347114;32;34521;-80
2024/01/29 10:11:13;;;;;;;;;;;;;;;7.39;47.58;102736.94;5362926;32;33282;-80
2024/01/29 10:14:16;;;;;;;;;;;;;;;6.99;47.93;102744.31;5363517;32;34126;-64
2024/01/29 10:17:18;;;;;;;;;;;;;;;7.10;48.31;102740.97;5356613;32;33855;-77
2024/01/29 10:20:20;;;;;;;;;;;;;;;7.76;46.45;102729.50;5350104;32;34553;-66
2024/01/29 10:23:23;;;;;;;;;;;;;;;7.78;46.75;102728.63;5339219;32;34418;-80
2024/01/29 10:26:25;;;;;;;;;;;;;;;7.32;47.84;102724.66;5351529;32;34266;-70
2024/01/29 10:29:27;;;;;;;;;;;;;;;6.61;49.40;102730.69;5350477;32;34701;-79
2024/01/29 10:32:29;;;;;;;;;;;;;;;7.77;47.01;102737.34;5349938;32;34656;-68
2024/01/29 10:35:33;;;;;;;;;;;;;;;8.10;46.04;102721.06;5359431;32;34688;-75
2024/01/29 10:38:37;;;;;;;;;;;;;;;10.12;40.89;102721.06;5362528;32;34177;-69
2024/01/29 10:41:40;;;;;;;;;;;;;;;13.16;36.15;102706.84;5353288;32;35567;-73
2024/01/29 10:44:43;;;;;;;;;;;;;;;15.24;32.43;102699.75;5360009;32;34343;-70
2024/01/29 10:47:49;;;;;;;;;;;;;;;16.38;29.88;102690.81;5346346;32;35312;-73
2024/01/29 10:50:51;;;;;;;;;;;;;;;16.43;28.82;102689.78;5364262;32;34282;-68
2024/01/29 10:53:53;;;;;;;;;;;;;;;16.53;28.93;102685.06;5355947;32;34252;-78
2024/01/29 10:56:55;;;;;;;;;;;;;;;15.79;29.83;102682.62;5345563;32;34397;-71
2024/01/29 10:59:57;;;;;;;;;;;;;;;16.79;29.18;102674.63;5338701;32;35542;-68
2024/01/29 11:02:59;;;;;;;;;;;;;;;18.84;25.58;102670.53;5332147;32;36021;-76
2024/01/29 11:06:11;;;;;;;;;;;;;;;16.78;28.51;102675.53;5358917;32;36204;-71
2024/01/29 11:09:14;;;;;;;;;;;;;;;15.77;29.54;102677.31;5336681;32;34476;-76
2024/01/29 11:12:16;;;;;;;;;;;;;;;15.28;30.41;102672.28;5354280;32;35195;-74
2024/01/29 11:15:18;;;;;;;;;;;;;;;13.66;32.07;102675.34;5367672;32;34304;-66
2024/01/29 11:18:23;;;;;;;;;;;;;;;14.54;32.01;102660.56;5358685;32;35408;-73
2024/01/29 11:21:26;;;;;;;;;;;;;;;16.12;29.43;102654.38;5350700;32;34752;-65
2024/01/29 11:24:30;;;;;;;;;;;;;;;14.77;30.63;102660.13;5359789;32;34159;-66
2024/01/29 11:27:32;;;;;;;;;;;;;;;14.61;31.21;102638.38;5366126;32;34662;-76
2024/01/29 11:30:35;;;;;;;;;;;;;;;13.11;32.97;102649.69;5351959;32;34358;-65
2024/01/29 11:33:37;;;;;;;;;;;;;;;12.01;34.93;102654.47;5366797;32;34515;-66
2024/01/29 11:36:39;;;;;;;;;;;;;;;13.64;33.14;102637.50;5338589;32;34362;-74
2024/01/29 11:39:42;;;;;;;;;;;;;;;12.82;33.91;102639.53;5363735;32;34351;-75
2024/01/29 11:42:44;;;;;;;;;;;;;;;13.63;33.25;102630.47;5352277;32;34491;-77
2024/01/29 11:45:50;;;;;;;;;;;;;;;15.02;30.97;102628.72;5368434;32;34700;-69
2024/01/29 11:48:57;;;;;;;;;;;;;;;13.55;32.44;102630.59;5358751;32;34193;-79
2024/01/29 11:52:03;;;;;;;;;;;;;;;12.94;33.76;102623.50;5363143;32;34174;-76
2024/01/29 11:55:14;;;;;;;;;;;;;;;12.71;34.49;102624.69;5355664;32;33177;-68
2024/01/29 11:58:22;;;;;;;;;;;;;;;13.52;32.99;102620.97;5356612;32;34444;-67
2024/01/29 12:01:25;;;;;;;;;;;;;;;11.31;36.99;102621.59;5365420;32;36293;-67
2024/01/29 12:04:32;;;;;;;;;;;;;;;13.43;34.39;102613.16;5369302;32;36484;-71
2024/01/29 12:07:36;;;;;;;;;;;;;;;14.45;31.87;102613.13;5357515;32;35450;-74
2024/01/29 12:10:40;;;;;;;;;;;;;;;11.94;35.10;102615.88;5353751;32;34732;-67
2024/01/29 12:13:57;;;;;;;;;;;;;;;12.30;35.65;102612.00;5370470;32;34597;-71
2024/01/29 12:17:01;;;;;;;;;;;;;;;14.27;32.51;102610.81;5368653;32;36568;-67
2024/01/29 12:20:05;;;;;;;;;;;;;;;15.39;30.78;102606.66;5355803;32;34288;-71
2024/01/29 12:23:13;;;;;;;;;;;;;;;16.34;29.47;102607.75;5369315;32;36938;-75
2024/01/29 12:26:25;;;;;;;;;;;;;;;15.73;30.01;102621.78;5363339;32;36922;-68
2024/01/29 12:29:38;;;;;;;;;;;;;;;19.41;25.16;102599.87;5352524;32;34547;-70
2024/01/29 12:32:42;;;;;;;;;;;;;;;17.21;26.63;102605.19;5367157;32;35597;-67
2024/01/29 12:35:46;;;;;;;;;;;;;;;16.53;28.18;102601.00;5354097;32;36750;-67
2024/01/29 12:38:53;;;;;;;;;;;;;;;16.97;27.73;102600.63;5353893;32;35294;-72
2024/01/29 12:41:59;;;;;;;;;;;;;;;16.52;28.19;102588.66;5354888;32;34623;-72
2024/01/29 12:45:17;;;;;;;;;;;;;;;16.98;27.68;102597.91;5345716;32;34379;-70
2024/01/29 12:48:30;;;;;;;;;;;;;;;14.16;32.10;102607.50;5364479;32;36880;-71
2024/01/29 12:51:35;;;;;;;;;;;;;;;14.71;31.95;102601.16;5366276;32;34751;-70
2024/01/29 12:54:43;;;;;;;;;;;;;;;14.90;31.09;102603.37;5362406;32;35299;-64
2024/01/29 12:57:47;;;;;;;;;;;;;;;15.77;30.23;102586.31;5354305;32;34264;-71
2024/01/29 13:00:54;;;;;;;;;;;;;;;17.08;27.87;102593.22;5371241;32;33402;-68
2024/01/29 13:04:18;;;;;;;;;;;;;;;16.51;28.29;102586.91;5320674;32;36287;-71
2024/01/29 13:07:25;;;;;;;;;;;;;;;15.00;30.94;102598.72;5324786;32;34071;-74
2024/01/29 13:10:30;;;;;;;;;;;;;;;14.35;32.37;102598.31;5326399;32;34249;-69
2024/01/29 13:13:32;;;;;;;;;;;;;;;16.85;27.98;102588.59;5325361;32;35336;-72
2024/01/29 13:16:34;;;;;;;;;;;;;;;18.29;26.10;102584.69;5327879;32;37534;-73
2024/01/29 13:19:39;;;;;;;;;;;;;;;17.78;26.83;102576.75;5312822;32;35626;-74
2024/01/29 13:22:59;;;;;;;;;;;;;;;19.30;24.69;102574.56;5329948;32;34540;-69
2024/01/29 13:26:07;;;;;;;;;;;;;;;17.92;26.09;102590.44;5326707;32;34431;-71
2024/01/29 13:29:17;;;;;;;;;;;;;;;17.96;26.41;102588.53;5332895;32;34970;-66
2024/01/29 13:32:20;;;;;;;;;;;;;;;16.75;27.74;102595.97;5310715;32;34936;-69
2024/01/29 13:35:24;;;;;;;;;;;;;;;17.33;27.26;102583.53;5346111;32;34041;-68
2024/01/29 13:38:27;;;;;;;;;;;;;;;19.11;25.03;102572.66;5367105;32;35318;-71
2024/01/29 13:41:31;;;;;;;;;;;;;;;19.79;23.84;102572.56;5365354;32;36309;-77
2024/01/29 13:44:37;;;;;;;;;;;;;;;20.52;23.37;102567.47;5351102;32;35024;-75
2024/01/29 13:47:41;;;;;;;;;;;;;;;22.40;20.86;102567.84;5348108;32;34310;-72
2024/01/29 13:50:43;;;;;;;;;;;;;;;19.32;24.04;102570.03;5369806;32;34367;-71
2024/01/29 13:53:49;;;;;;;;;;;;;;;17.63;26.61;102572.78;5358813;32;33994;-76
2024/01/29 13:56:52;;;;;;;;;;;;;;;18.93;25.18;102574.28;5368417;32;35803;-75
2024/01/29 13:59:58;;;;;;;;;;;;;;;20.24;23.36;102567.84;5354222;32;37769;-70
2024/01/29 14:03:00;;;;;;;;;;;;;;;16.77;27.30;102583.50;5366992;32;36060;-75
2024/01/29 14:06:03;;;;;;;;;;;;;;;15.97;28.51;102587.56;5351996;32;34340;-69
2024/01/29 14:09:05;;;;;;;;;;;;;;;14.92;30.68;102590.09;5352357;32;36214;-64
2024/01/29 14:12:07;;;;;;;;;;;;;;;15.93;28.85;102582.34;5363755;32;34764;-67
2024/01/29 14:15:11;;;;;;;;;;;;;;;14.51;31.25;102588.34;5349100;32;33448;-79
2024/01/29 14:18:13;;;;;;;;;;;;;;;14.31;31.72;102586.94;5349608;32;34155;-76
2024/01/29 14:21:15;;;;;;;;;;;;;;;15.54;29.72;102585.09;5361283;32;34688;-75
2024/01/29 14:24:17;;;;;;;;;;;;;;;15.10;29.77;102581.72;5336995;32;34339;-69
2024/01/29 14:27:20;;;;;;;;;;;;;;;14.77;31.02;102590.44;5360749;32;35852;-68
2024/01/29 14:30:22;;;;;;;;;;;;;;;14.71;31.02;102594.09;5363163;32;34224;-71
2024/01/29 14:33:29;;;;;;;;;;;;;;;13.39;32.63;102589.44;5342132;32;34872;-72
2024/01/29 14:36:31;;;;;;;;;;;;;;;13.21;33.51;102582.72;5351514;32;36061;-75
2024/01/29 14:39:33;;;;;;;;;;;;;;;12.16;35.26;102593.69;5356490;32;36088;-75
2024/01/29 14:42:35;;;;;;;;;;;;;;;12.81;34.10;102596.41;5362825;32;34378;-69
2024/01/29 14:45:39;;;;;;;;;;;;;;;11.66;36.40;102596.78;5358889;32;34688;-70
2024/01/29 14:48:41;;;;;;;;;;;;;;;10.32;39.17;102610.69;5349225;32;34396;-75
2024/01/29 14:51:44;;;;;;;;;;;;;;;10.90;38.07;102607.84;5360959;32;34341;-76
2024/01/29 14:54:46;;;;;;;;;;;;;;;10.38;38.99;102608.06;5366240;32;34239;-78
2024/01/29 14:57:49;;;;;;;;;;;;;;;9.56;41.09;102616.87;5352965;32;35152;-70
2024/01/29 15:00:51;;;;;;;;;;;;;;;10.21;39.71;102619.44;5351373;32;34638;-70
2024/01/29 15:03:53;;;;;;;;;;;;;;;9.58;41.51;102621.22;5350203;32;34779;-78
2024/01/29 15:06:56;;;;;;;;;;;;;;;9.63;41.64;102614.25;5364270;32;35565;-69
2024/01/29 15:09:58;;;;;;;;;;;;;;;9.04;42.58;102615.03;5366837;32;34343;-76
2024/01/29 15:13:01;;;;;;;;;;;;;;;9.00;42.90;102628.12;5354307;32;36060;-71
2024/01/29 15:16:06;;;;;;;;;;;;;;;8.33;44.56;102620.81;5346685;32;35435;-69
2024/01/29 15:19:08;;;;;;;;;;;;;;;8.94;43.00;102619.34;5366733;32;33975;-75
2024/01/29 15:22:10;;;;;;;;;;;;;;;8.66;43.88;102628.00;5349396;32;34846;-73
2024/01/29 15:25:13;;;;;;;;;;;;;;;8.62;44.03;102616.63;5368318;32;34487;-74
2024/01/29 15:28:19;;;;;;;;;;;;;;;8.50;44.40;102626.16;5344277;32;33585;-71
2024/01/29 15:31:24;;;;;;;;;;;;;;;8.30;44.99;102629.50;5347704;32;34294;-63
2024/01/29 15:34:30;;;;;;;;;;;;;;;8.15;45.51;102626.81;5362247;32;34224;-73
2024/01/29 15:37:33;;;;;;;;;;;;;;;7.88;46.36;102630.13;5358515;32;36179;-70
2024/01/29 15:40:35;;;;;;;;;;;;;;;7.72;46.93;102630.84;5369994;32;35328;-70
2024/01/29 15:43:39;;;;;;;;;;;;;;;8.32;45.63;102632.16;5364175;32;34426;-68
2024/01/29 15:46:45;;;;;;;;;;;;;;;8.47;45.15;102636.66;5342388;32;34508;-72
2024/01/29 15:49:47;;;;;;;;;;;;;;;8.41;45.29;102640.97;5364352;32;33573;-67